Time;durP1;ratioP1;P1;durP2;ratioP2;P2;SDS_P1;SDS_P2;PMS_P1;PMS_P2;Temp;Humidity;BMP_temperature;BMP_pressure;BME280_temperature;BME280_humidity;BME280_pressure;Samples;Min_cycle;Max_cycle;Signal;HPM_P1;HPM_P2
2021/04/14 00:00:54;;;;;;;0.90;0.80;;;20.30;46.10;;;;;;7673044;23;20127;-65
2021/04/14 00:03:55;;;;;;;2.17;0.98;;;20.30;46.20;;;;;;7672459;23;20317;-65
2021/04/14 00:06:56;;;;;;;1.00;0.70;;;20.30;46.20;;;;;;7672734;23;20089;-65
2021/04/14 00:09:56;;;;;;;0.73;0.73;;;20.30;46.10;;;;;;7672317;23;20008;-65
2021/04/14 00:12:57;;;;;;;1.30;0.90;;;20.30;46.10;;;;;;7672511;23;20329;-65
2021/04/14 00:15:58;;;;;;;1.33;0.80;;;20.30;46.10;;;;;;7672470;23;20036;-65
2021/04/14 00:19:00;;;;;;;0.98;0.80;;;20.30;46.20;;;;;;7671993;23;20080;-65
2021/04/14 00:22:01;;;;;;;1.88;1.05;;;20.30;46.20;;;;;;7672855;23;20016;-65
2021/04/14 00:25:01;;;;;;;0.90;0.70;;;20.30;46.20;;;;;;7671903;23;20009;-65
2021/04/14 00:28:02;;;;;;;1.90;0.80;;;20.30;46.20;;;;;;7672077;23;20436;-65
2021/04/14 00:31:04;;;;;;;2.10;1.10;;;20.30;46.10;;;;;;7672254;23;20005;-65
2021/04/14 00:34:16;;;;;;;1.15;0.65;;;20.30;46.10;;;;;;7672492;23;20032;-65
2021/04/14 00:37:17;;;;;;;1.73;0.90;;;20.30;46.10;;;;;;7672404;23;20013;-65
2021/04/14 00:40:28;;;;;;;1.52;0.80;;;20.30;46.20;;;;;;7671764;23;20444;-65
2021/04/14 00:43:31;;;;;;;1.67;0.95;;;20.30;46.20;;;;;;7672717;23;20017;-65
2021/04/14 00:46:32;;;;;;;1.17;0.70;;;20.30;46.30;;;;;;7672290;23;20011;-64
2021/04/14 00:49:33;;;;;;;1.13;0.73;;;20.30;46.20;;;;;;7672196;23;20009;-65
2021/04/14 00:52:33;;;;;;;1.92;1.05;;;20.30;46.30;;;;;;7672596;23;20005;-65
2021/04/14 00:55:35;;;;;;;1.10;1.00;;;20.30;46.20;;;;;;7673431;23;20635;-64
2021/04/14 00:58:36;;;;;;;1.00;0.70;;;20.30;46.10;;;;;;7674950;23;20013;-65
2021/04/14 01:05:55;;;;;;;;;;;20.30;46.10;;;;;;7674198;23;20100;-65
2021/04/14 01:08:56;;;;;;;1.50;0.85;;;20.30;46.20;;;;;;7674637;23;19904;-65
2021/04/14 01:11:57;;;;;;;1.25;0.90;;;20.30;46.10;;;;;;7674354;23;20009;-65
2021/04/14 01:14:58;;;;;;;0.88;0.60;;;20.30;46.20;;;;;;7674990;23;20020;-65
2021/04/14 01:17:59;;;;;;;0.82;0.63;;;20.30;46.30;;;;;;7674483;23;20013;-65
2021/04/14 01:21:01;;;;;;;1.75;0.88;;;20.30;46.10;;;;;;7674420;23;20009;-65
2021/04/14 01:24:03;;;;;;;1.02;0.88;;;20.20;46.00;;;;;;7674513;23;20351;-65
2021/04/14 01:27:04;;;;;;;1.45;0.82;;;20.20;46.10;;;;;;7673782;23;20222;-64
2021/04/14 01:30:30;;;;;;;1.45;0.95;;;20.30;46.20;;;;;;7674866;23;20009;-64
2021/04/14 01:33:32;;;;;;;1.25;0.80;;;20.20;46.10;;;;;;7673463;23;20005;-65
2021/04/14 01:36:34;;;;;;;1.65;0.90;;;20.20;46.00;;;;;;7674180;23;20424;-65
2021/04/14 01:39:34;;;;;;;1.55;0.80;;;20.30;46.10;;;;;;7674381;23;20436;-65
2021/04/14 01:42:35;;;;;;;3.33;0.82;;;20.20;46.10;;;;;;7674625;23;20009;-65
2021/04/14 01:45:47;;;;;;;1.17;0.70;;;20.20;46.00;;;;;;7675013;23;20012;-65
2021/04/14 01:48:47;;;;;;;0.75;0.60;;;20.20;46.20;;;;;;7673590;23;20032;-64
2021/04/14 01:51:48;;;;;;;1.27;0.80;;;20.20;46.00;;;;;;7674125;23;20076;-64
2021/04/14 01:54:49;;;;;;;1.75;0.73;;;20.30;46.10;;;;;;7673668;23;20056;-64
2021/04/14 01:57:49;;;;;;;2.40;0.95;;;20.30;46.10;;;;;;7674085;23;20016;-65
2021/04/14 02:00:56;;;;;;;1.00;0.80;;;20.30;46.10;;;;;;7673729;23;20333;-64
2021/04/14 02:03:57;;;;;;;1.25;0.77;;;20.20;46.70;;;;;;7674106;23;20011;-65
2021/04/14 02:06:58;;;;;;;1.02;0.90;;;20.20;46.10;;;;;;7673417;23;20333;-65
2021/04/14 02:09:58;;;;;;;0.93;0.73;;;20.20;46.20;;;;;;7674138;23;20436;-65
2021/04/14 02:13:01;;;;;;;1.38;0.80;;;20.20;45.90;;;;;;7673561;23;20016;-64
2021/04/14 02:16:03;;;;;;;1.45;0.90;;;20.20;45.90;;;;;;7673903;23;20120;-64
2021/04/14 02:19:04;;;;;;;1.38;0.80;;;20.20;45.90;;;;;;7673576;23;20062;-64
2021/04/14 02:22:05;;;;;;;1.27;0.70;;;20.20;45.90;;;;;;7673801;23;20306;-65
2021/04/14 02:25:08;;;;;;;1.88;1.00;;;20.20;45.90;;;;;;7674263;23;20036;-65
2021/04/14 02:28:09;;;;;;;1.45;0.82;;;20.20;46.10;;;;;;7673494;23;20027;-65
2021/04/14 02:31:11;;;;;;;1.17;0.70;;;20.20;46.00;;;;;;7673669;23;20008;-65
2021/04/14 02:34:14;;;;;;;1.17;0.80;;;20.20;46.00;;;;;;7673925;23;20060;-65
2021/04/14 02:37:14;;;;;;;0.80;0.70;;;20.20;46.20;;;;;;7673611;23;20063;-65
2021/04/14 02:40:16;;;;;;;0.90;0.80;;;20.20;45.90;;;;;;7674068;23;20005;-64
2021/04/14 02:43:16;;;;;;;0.88;0.70;;;20.20;46.20;;;;;;7674082;23;20009;-65
2021/04/14 02:46:18;;;;;;;2.55;0.80;;;20.20;46.10;;;;;;7673998;23;20047;-65
2021/04/14 02:49:18;;;;;;;1.27;0.82;;;20.20;46.10;;;;;;7673465;23;20092;-64
2021/04/14 02:52:19;;;;;;;1.75;0.70;;;20.20;46.20;;;;;;7673190;23;20083;-65
2021/04/14 02:55:23;;;;;;;1.80;0.95;;;20.20;46.20;;;;;;7673699;23;20016;-64
2021/04/14 02:58:24;;;;;;;0.93;0.70;;;20.20;46.00;;;;;;7672893;23;20275;-65
2021/04/14 03:01:26;;;;;;;2.03;1.00;;;20.20;46.10;;;;;;7672246;23;20219;-65
2021/04/14 03:04:26;;;;;;;1.38;0.80;;;20.20;46.00;;;;;;7672992;23;20008;-65
2021/04/14 03:07:27;;;;;;;1.15;0.77;;;20.20;46.40;;;;;;7673293;23;20019;-64
2021/04/14 03:10:29;;;;;;;0.82;0.60;;;20.20;45.90;;;;;;7673440;23;20005;-65
2021/04/14 03:13:30;;;;;;;1.38;0.70;;;20.20;46.00;;;;;;7672953;23;20009;-65
2021/04/14 03:16:30;;;;;;;1.55;0.70;;;20.20;46.00;;;;;;7673212;23;20047;-65
2021/04/14 03:19:31;;;;;;;1.48;1.00;;;20.20;46.20;;;;;;7671699;23;20016;-65
2021/04/14 03:22:32;;;;;;;1.45;0.63;;;20.20;46.10;;;;;;7673017;23;20009;-64
2021/04/14 03:25:32;;;;;;;1.27;0.85;;;20.20;46.00;;;;;;7672783;23;20421;-65
2021/04/14 03:28:33;;;;;;;1.58;0.70;;;20.20;46.00;;;;;;7671163;23;20452;-65
2021/04/14 03:31:34;;;;;;;1.25;0.60;;;20.20;46.00;;;;;;7673006;23;20009;-65
2021/04/14 03:34:34;;;;;;;1.13;0.70;;;20.20;46.10;;;;;;7673280;23;20432;-65
2021/04/14 03:37:35;;;;;;;1.52;0.85;;;20.20;46.10;;;;;;7672342;23;20467;-65
2021/04/14 03:40:35;;;;;;;1.45;1.10;;;20.20;46.00;;;;;;7672552;23;20016;-65
2021/04/14 03:43:36;;;;;;;1.15;0.90;;;20.20;46.00;;;;;;7672914;23;20032;-65
2021/04/14 03:46:37;;;;;;;1.42;0.77;;;20.20;46.10;;;;;;7672341;23;20080;-65
2021/04/14 03:49:37;;;;;;;1.08;0.70;;;20.20;46.00;;;;;;7672584;23;20035;-65
2021/04/14 03:52:38;;;;;;;1.55;0.80;;;20.20;46.10;;;;;;7672492;23;20412;-65
2021/04/14 03:55:39;;;;;;;1.17;0.85;;;20.20;46.10;;;;;;7672378;23;20025;-65
2021/04/14 03:58:42;;;;;;;1.25;0.90;;;20.20;46.10;;;;;;7672331;23;20025;-65
2021/04/14 04:01:44;;;;;;;1.27;0.80;;;20.20;45.80;;;;;;7672602;23;20324;-65
2021/04/14 04:04:44;;;;;;;1.00;0.73;;;20.20;46.20;;;;;;7673002;23;20012;-65
2021/04/14 04:07:44;;;;;;;1.77;0.80;;;20.20;46.10;;;;;;7672289;23;20001;-65
2021/04/14 04:10:46;;;;;;;2.05;0.88;;;20.20;46.20;;;;;;7673087;23;20000;-65
2021/04/14 04:13:47;;;;;;;1.30;0.85;;;20.20;45.90;;;;;;7672260;23;20000;-65
2021/04/14 04:16:47;;;;;;;1.15;0.80;;;20.20;45.90;;;;;;7672489;23;20067;-64
2021/04/14 04:19:48;;;;;;;1.15;0.80;;;20.20;45.90;;;;;;7672633;23;20076;-65
2021/04/14 04:22:49;;;;;;;1.95;1.10;;;20.20;46.00;;;;;;7672706;23;19997;-64
2021/04/14 04:25:51;;;;;;;1.55;0.85;;;20.20;45.90;;;;;;7672577;23;20005;-64
2021/04/14 04:28:52;;;;;;;0.98;0.68;;;20.20;46.30;;;;;;7671863;23;20044;-64
2021/04/14 04:31:52;;;;;;;0.85;0.68;;;20.20;45.90;;;;;;7672168;23;20403;-64
2021/04/14 04:34:53;;;;;;;1.52;0.95;;;20.20;45.70;;;;;;7672005;23;20005;-65
2021/04/14 04:37:53;;;;;;;1.65;1.17;;;20.20;45.70;;;;;;7672907;23;20063;-65
2021/04/14 04:40:55;;;;;;;1.38;0.90;;;20.20;45.80;;;;;;7672436;23;20017;-64
2021/04/14 04:43:56;;;;;;;1.95;1.15;;;20.20;45.60;;;;;;7672446;23;20059;-64
2021/04/14 04:46:56;;;;;;;1.55;1.00;;;20.20;45.50;;;;;;7671900;23;20009;-64
2021/04/14 04:49:57;;;;;;;1.17;0.85;;;20.20;45.50;;;;;;7671858;23;20012;-65
2021/04/14 04:53:04;;;;;;;1.23;0.80;;;20.20;45.50;;;;;;7672871;23;19997;-65
2021/04/14 04:56:05;;;;;;;1.50;0.85;;;20.20;45.40;;;;;;7672219;23;20083;-65
2021/04/14 05:03:04;;;;;;;2.75;0.95;;;20.20;45.40;;;;;;7672345;23;20004;-65
2021/04/14 05:06:05;;;;;;;1.90;1.10;;;20.30;45.50;;;;;;7672354;23;20012;-64
2021/04/14 05:09:06;;;;;;;1.45;0.88;;;20.20;45.50;;;;;;7672394;23;20012;-64
2021/04/14 05:12:07;;;;;;;2.83;1.30;;;20.20;45.40;;;;;;7671967;23;20005;-65
2021/04/14 05:15:10;;;;;;;2.15;0.90;;;20.30;45.60;;;;;;7671740;23;20013;-65
2021/04/14 05:18:11;;;;;;;1.05;0.85;;;20.30;45.40;;;;;;7671871;23;20302;-64
2021/04/14 05:21:11;;;;;;;1.50;0.90;;;20.20;45.40;;;;;;7672272;23;20336;-64
2021/04/14 05:24:12;;;;;;;1.88;1.10;;;20.20;45.50;;;;;;7671818;23;20009;-63
2021/04/14 05:27:13;;;;;;;1.38;0.90;;;20.20;45.40;;;;;;7662738;23;20021;-64
2021/04/14 05:30:14;;;;;;;5.40;1.48;;;20.20;46.00;;;;;;7668929;23;20456;-64
2021/04/14 05:33:15;;;;;;;11.38;1.83;;;20.20;45.90;;;;;;7670999;23;20009;-64
2021/04/14 05:36:15;;;;;;;4.15;1.17;;;20.20;43.70;;;;;;7670365;23;20001;-65
2021/04/14 05:39:16;;;;;;;10.52;1.83;;;20.20;43.50;;;;;;7671139;23;20009;-65
2021/04/14 05:42:16;;;;;;;8.38;1.85;;;20.20;43.30;;;;;;7672811;23;20335;-64
2021/04/14 05:45:21;;;;;;;4.80;1.50;;;20.20;43.50;;;;;;7673659;23;20202;-65
2021/04/14 05:48:22;;;;;;;5.18;1.60;;;20.20;43.90;;;;;;7672864;23;20044;-65
2021/04/14 05:51:27;;;;;;;7.88;2.05;;;20.20;43.90;;;;;;7673608;23;20429;-65
2021/04/14 05:54:28;;;;;;;5.10;1.55;;;20.20;44.30;;;;;;7673152;23;20009;-64
2021/04/14 05:57:28;;;;;;;2.78;1.33;;;20.20;44.30;;;;;;7673292;23;20468;-64
2021/04/14 06:00:29;;;;;;;6.65;1.73;;;20.20;44.50;;;;;;7672780;23;20087;-65
2021/04/14 06:03:29;;;;;;;3.67;1.30;;;20.20;44.30;;;;;;7674642;23;20009;-65
2021/04/14 06:06:30;;;;;;;4.72;1.67;;;20.20;44.50;;;;;;7673159;23;20001;-65
2021/04/14 06:09:30;;;;;;;3.08;1.48;;;20.20;44.60;;;;;;7673380;23;20000;-65
2021/04/14 06:12:31;;;;;;;2.97;1.42;;;20.20;44.60;;;;;;7671487;23;20014;-65
2021/04/14 06:15:33;;;;;;;3.67;1.73;;;20.20;44.70;;;;;;7673204;23;20768;-64
2021/04/14 06:18:34;;;;;;;8.02;1.90;;;20.20;44.90;;;;;;7672973;23;20017;-65
2021/04/14 06:21:34;;;;;;;3.42;1.30;;;20.20;44.90;;;;;;7674169;23;20079;-65
2021/04/14 06:24:35;;;;;;;3.78;1.40;;;20.20;44.90;;;;;;7673873;23;20001;-65
2021/04/14 06:27:48;;;;;;;2.42;1.20;;;20.20;44.90;;;;;;7675037;23;20045;-65
2021/04/14 06:30:49;;;;;;;5.18;1.60;;;20.20;45.10;;;;;;7674381;23;20032;-65
2021/04/14 06:33:51;;;;;;;3.08;1.45;;;20.20;44.90;;;;;;7675580;23;20088;-65
2021/04/14 06:36:56;;;;;;;4.82;1.60;;;20.20;45.10;;;;;;7675225;23;20104;-65
2021/04/14 06:44:09;;;;;;;5.55;1.52;;;20.30;45.10;;;;;;7652004;23;20005;-65
2021/04/14 06:47:20;;;;;;;3.45;1.33;;;20.30;45.10;;;;;;7651432;23;20324;-65
2021/04/14 06:50:33;;;;;;;1.95;1.25;;;20.30;45.10;;;;;;7675078;23;20009;-65
2021/04/14 06:53:57;;;;;;;2.35;1.27;;;20.30;45.10;;;;;;7675728;23;20005;-65
2021/04/14 06:57:10;;;;;;;3.60;1.33;;;20.30;45.20;;;;;;7675627;23;20016;-65
2021/04/14 07:00:35;;;;;;;3.70;1.60;;;20.30;45.20;;;;;;7674678;23;20001;-65
2021/04/14 07:03:54;;;;;;;6.30;1.98;;;20.30;45.10;;;;;;7674812;23;20155;-65
2021/04/14 07:06:54;;;;;;;2.33;1.20;;;20.30;45.20;;;;;;7672320;23;20012;-64
2021/04/14 07:10:10;;;;;;;3.65;1.40;;;20.30;45.20;;;;;;7675866;23;20009;-64
2021/04/14 07:13:12;;;;;;;2.40;1.30;;;20.30;45.20;;;;;;7674191;23;20009;-65
2021/04/14 07:16:43;;;;;;;4.15;1.60;;;20.30;45.10;;;;;;7674909;23;20104;-65
2021/04/14 07:20:19;;;;;;;2.80;1.30;;;20.30;45.10;;;;;;7674671;23;20137;-65
2021/04/14 07:23:28;;;;;;;2.72;1.42;;;20.40;45.10;;;;;;7671223;23;20020;-65
2021/04/14 07:26:44;;;;;;;2.90;1.25;;;20.40;45.10;;;;;;7675192;23;20020;-65
2021/04/14 07:29:51;;;;;;;3.47;1.38;;;20.40;45.30;;;;;;7673601;23;20092;-64
2021/04/14 07:33:09;;;;;;;2.28;1.30;;;20.40;45.20;;;;;;7675394;23;20005;-65
2021/04/14 07:36:35;;;;;;;2.53;1.55;;;20.40;45.00;;;;;;7675154;23;20091;-65
2021/04/14 07:39:42;;;;;;;;;;;20.50;45.00;;;;;;7676397;23;20044;-65
2021/04/14 07:43:20;;;;;;;2.55;1.20;;;20.50;44.90;;;;;;7676025;23;20228;-65
2021/04/14 07:46:23;;;;;;;2.45;1.20;;;20.50;44.90;;;;;;7676109;23;20032;-65
2021/04/14 07:49:29;;;;;;;5.28;1.40;;;20.50;44.80;;;;;;7676029;23;20009;-65
2021/04/14 07:52:31;;;;;;;3.85;1.45;;;20.50;45.00;;;;;;7676269;23;20038;-65
2021/04/14 07:55:33;;;;;;;2.75;1.30;;;20.50;45.00;;;;;;7676153;23;20005;-65
2021/04/14 07:58:36;;;;;;;6.25;1.67;;;20.50;45.30;;;;;;7675931;23;20117;-66
2021/04/14 08:01:37;;;;;;;5.32;2.10;;;20.40;44.60;;;;;;7676363;23;20091;-66
2021/04/14 08:04:45;;;;;;;10.02;2.25;;;20.40;43.50;;;;;;7675749;23;20005;-66
2021/04/14 08:07:46;;;;;;;9.85;2.45;;;20.50;42.90;;;;;;7674844;23;20005;-66
2021/04/14 08:11:00;;;;;;;5.82;2.00;;;20.50;42.70;;;;;;7675761;23;20424;-66
2021/04/14 08:14:24;;;;;;;8.30;2.08;;;20.50;42.90;;;;;;7675298;23;20507;-66
2021/04/14 08:17:29;;;;;;;7.47;2.08;;;20.50;43.00;;;;;;7674478;23;20015;-66
2021/04/14 08:20:32;;;;;;;6.13;2.03;;;20.40;43.30;;;;;;7675424;23;20013;-66
2021/04/14 08:23:33;;;;;;;6.57;1.80;;;20.40;43.50;;;;;;7675278;23;20008;-66
2021/04/14 08:26:35;;;;;;;9.57;2.17;;;20.40;43.60;;;;;;7675906;23;20004;-66
2021/04/14 08:29:35;;;;;;;5.80;2.00;;;20.40;43.70;;;;;;7674956;23;20008;-67
2021/04/14 08:32:41;;;;;;;6.50;2.10;;;20.40;43.70;;;;;;7675033;23;20009;-66
2021/04/14 08:35:45;;;;;;;6.45;2.30;;;20.40;43.90;;;;;;7676308;23;20009;-66
2021/04/14 08:38:46;;;;;;;6.80;2.08;;;20.40;44.00;;;;;;7674784;23;20345;-66
2021/04/14 08:41:48;;;;;;;8.50;2.17;;;20.40;44.10;;;;;;7674521;23;20009;-66
2021/04/14 08:44:55;;;;;;;10.65;2.65;;;20.40;44.10;;;;;;7674659;23;20005;-66
2021/04/14 08:48:17;;;;;;;4.32;2.00;;;20.40;44.20;;;;;;7674375;23;20008;-66
2021/04/14 08:51:19;;;;;;;6.50;2.13;;;20.40;44.20;;;;;;7674714;23;20005;-66
2021/04/14 08:54:26;;;;;;;10.25;1.98;;;20.40;44.30;;;;;;7672788;23;20068;-66
2021/04/14 08:57:27;;;;;;;7.88;1.98;;;20.40;44.30;;;;;;7675547;23;20020;-66
2021/04/14 09:00:27;;;;;;;8.07;2.42;;;20.40;44.50;;;;;;7675951;23;20009;-66
2021/04/14 09:03:35;;;;;;;7.53;2.30;;;20.40;44.60;;;;;;7674086;23;20016;-66
2021/04/14 09:06:43;;;;;;;8.65;1.80;;;20.40;44.60;;;;;;7674256;23;20001;-66
2021/04/14 09:09:47;;;;;;;6.70;2.63;;;20.40;44.40;;;;;;7674917;23;20009;-66
2021/04/14 09:12:50;;;;;;;5.20;2.28;;;20.40;44.70;;;;;;7674950;23;20091;-67
2021/04/14 09:15:58;;;;;;;8.30;2.10;;;20.50;44.90;;;;;;7674335;23;20336;-66
2021/04/14 09:19:20;;;;;;;9.18;1.80;;;20.50;44.60;;;;;;7676627;23;20009;-66
2021/04/14 09:22:25;;;;;;;4.47;1.70;;;20.50;44.60;;;;;;7677500;23;20458;-66
2021/04/14 09:25:43;;;;;;;;;;;20.40;44.40;;;;;;7676462;23;20012;-66
2021/04/14 09:28:48;;;;;;;8.50;2.05;;;20.50;44.50;;;;;;7676383;23;20244;-66
2021/04/14 09:31:51;;;;;;;5.47;2.00;;;20.40;44.50;;;;;;7677780;23;20005;-64
2021/04/14 09:34:52;;;;;;;4.32;1.65;;;20.40;44.60;;;;;;7677254;23;20054;-66
2021/04/14 09:38:22;;;;;;;4.13;1.70;;;20.50;44.70;;;;;;7677267;23;20009;-66
2021/04/14 09:41:26;;;;;;;4.22;1.70;;;20.50;44.70;;;;;;7675863;23;20084;-66
2021/04/14 09:44:46;;;;;;;5.15;1.80;;;20.40;44.60;;;;;;7677348;23;20012;-66
2021/04/14 09:47:47;;;;;;;5.90;1.77;;;20.40;44.60;;;;;;7676713;23;20028;-66
2021/04/14 09:50:49;;;;;;;4.97;2.13;;;20.50;44.70;;;;;;7677396;23;20124;-66
2021/04/14 09:53:57;;;;;;;4.63;1.90;;;20.40;44.60;;;;;;7677451;23;20056;-66
2021/04/14 09:56:59;;;;;;;4.35;1.92;;;20.50;44.60;;;;;;7676303;23;20124;-66
2021/04/14 10:00:00;;;;;;;4.72;1.60;;;20.50;44.70;;;;;;7676937;23;20004;-65
2021/04/14 10:03:13;;;;;;;2.47;1.60;;;20.50;44.70;;;;;;7676815;23;20467;-66
2021/04/14 10:06:19;;;;;;;3.90;1.58;;;20.50;44.70;;;;;;7675140;23;20005;-66
2021/04/14 10:09:30;;;;;;;3.03;1.70;;;20.50;44.70;;;;;;7676214;23;20341;-66
2021/04/14 10:12:30;;;;;;;3.30;1.73;;;20.50;44.60;;;;;;7676385;23;20087;-66
2021/04/14 10:15:34;;;;;;;3.60;1.70;;;20.50;44.60;;;;;;7676115;23;20056;-66
2021/04/14 10:18:36;;;;;;;6.55;1.65;;;20.50;44.60;;;;;;7676407;23;20047;-66
2021/04/14 10:21:40;;;;;;;4.00;1.80;;;20.50;44.60;;;;;;7676635;23;20334;-65
2021/04/14 10:24:41;;;;;;;4.63;1.60;;;20.50;44.40;;;;;;7676167;23;20008;-66
2021/04/14 10:27:43;;;;;;;6.35;2.00;;;20.50;44.50;;;;;;7675126;23;20293;-66
2021/04/14 10:30:50;;;;;;;3.58;1.73;;;20.50;44.60;;;;;;7676840;23;20468;-66
2021/04/14 10:33:51;;;;;;;1.85;1.27;;;20.50;44.70;;;;;;7677443;23;20005;-66
2021/04/14 10:36:55;;;;;;;2.90;1.60;;;20.50;44.60;;;;;;7674165;23;20009;-66
2021/04/14 10:40:08;;;;;;;10.35;1.92;;;20.50;44.60;;;;;;7676766;23;20013;-66
2021/04/14 10:43:11;;;;;;;5.03;1.35;;;20.50;44.70;;;;;;7674911;23;20088;-66
2021/04/14 10:46:27;;;;;;;3.92;1.70;;;20.50;44.70;;;;;;7676038;23;20079;-66
2021/04/14 10:49:30;;;;;;;4.82;1.73;;;20.50;44.80;;;;;;7676724;23;20001;-67
2021/04/14 10:52:32;;;;;;;3.13;1.60;;;20.50;44.70;;;;;;7674295;23;20391;-66
2021/04/14 10:55:40;;;;;;;2.35;1.35;;;20.50;44.70;;;;;;7676961;23;20060;-66
2021/04/14 10:58:41;;;;;;;2.90;1.55;;;20.50;44.80;;;;;;7674855;23;20016;-66
2021/04/14 11:01:44;;;;;;;2.35;1.30;;;20.50;44.80;;;;;;7677634;23;20405;-66
2021/04/14 11:04:46;;;;;;;2.65;1.50;;;20.50;44.90;;;;;;7676500;23;20005;-66
2021/04/14 11:07:51;;;;;;;5.15;1.42;;;20.50;45.00;;;;;;7676111;23;20332;-66
2021/04/14 11:10:53;;;;;;;6.30;1.63;;;20.50;44.90;;;;;;7676296;23;20008;-66
2021/04/14 11:13:55;;;;;;;3.90;1.67;;;20.50;44.90;;;;;;7676268;23;20328;-66
2021/04/14 11:16:55;;;;;;;3.33;1.55;;;20.50;44.90;;;;;;7675683;23;20113;-66
2021/04/14 11:20:09;;;;;;;3.33;1.42;;;20.50;44.80;;;;;;7675464;23;20013;-66
2021/04/14 11:23:29;;;;;;;5.55;1.67;;;20.50;45.00;;;;;;7676180;23;20134;-66
2021/04/14 11:26:29;;;;;;;3.45;2.10;;;20.50;45.00;;;;;;7676390;23;20005;-66
2021/04/14 11:29:33;;;;;;;7.32;2.22;;;20.50;45.50;;;;;;7675393;23;20425;-66
2021/04/14 11:32:34;;;;;;;3.67;2.60;;;20.60;45.50;;;;;;7676515;23;20325;-66
2021/04/14 11:35:42;;;;;;;8.10;2.85;;;20.60;45.40;;;;;;7676498;23;20061;-66
2021/04/14 11:38:45;;;;;;;4.40;2.70;;;20.50;45.30;;;;;;7675908;23;20309;-66
2021/04/14 11:42:10;;;;;;;5.13;2.67;;;20.60;45.20;;;;;;7676185;23;20001;-66
2021/04/14 11:45:27;;;;;;;4.97;2.67;;;20.60;45.10;;;;;;7667402;23;20336;-66
2021/04/14 11:48:34;;;;;;;3.55;2.20;;;20.50;45.00;;;;;;7675782;23;20456;-66
2021/04/14 11:51:45;;;;;;;5.90;2.50;;;20.60;44.80;;;;;;7673798;23;20333;-66
2021/04/14 11:54:46;;;;;;;4.68;2.38;;;20.60;45.10;;;;;;7675824;23;20584;-66
2021/04/14 11:57:55;;;;;;;4.47;2.13;;;20.50;45.20;;;;;;7675229;23;20017;-66
2021/04/14 12:00:55;;;;;;;4.43;2.28;;;20.60;45.30;;;;;;7675921;23;20005;-66
2021/04/14 12:03:56;;;;;;;4.40;2.00;;;20.50;45.10;;;;;;7675100;23;20002;-66
2021/04/14 12:06:57;;;;;;;4.30;1.90;;;20.60;45.10;;;;;;7674416;23;20001;-66
2021/04/14 12:09:58;;;;;;;7.32;2.30;;;20.60;44.50;;;;;;7674677;23;20059;-66
2021/04/14 12:12:58;;;;;;;10.82;2.13;;;20.60;44.60;;;;;;7675765;23;20037;-66
2021/04/14 12:15:59;;;;;;;7.15;2.10;;;20.60;44.70;;;;;;7674980;23;20020;-65
2021/04/14 12:18:59;;;;;;;6.75;2.47;;;20.60;44.90;;;;;;7672574;23;20336;-65
2021/04/14 12:22:00;;;;;;;6.97;2.15;;;20.60;44.90;;;;;;7674214;23;20016;-66
2021/04/14 12:25:01;;;;;;;3.67;1.70;;;20.60;44.90;;;;;;7674078;23;20031;-65
2021/04/14 12:28:02;;;;;;;3.47;1.63;;;20.60;45.00;;;;;;7673459;23;20388;-66
2021/04/14 12:31:02;;;;;;;5.75;2.05;;;20.60;45.10;;;;;;7674241;23;20005;-65
2021/04/14 12:34:05;;;;;;;7.03;2.30;;;20.50;45.00;;;;;;7674306;23;20105;-66
2021/04/14 12:37:05;;;;;;;5.53;2.10;;;20.50;45.00;;;;;;7673566;23;20337;-65
2021/04/14 12:40:06;;;;;;;2.80;1.85;;;20.60;45.30;;;;;;7674025;23;20051;-66
2021/04/14 12:43:07;;;;;;;5.78;1.83;;;20.60;45.10;;;;;;7674164;23;20310;-66
2021/04/14 12:46:07;;;;;;;10.13;2.30;;;20.60;45.00;;;;;;7672415;23;20007;-66
2021/04/14 12:49:12;;;;;;;2.80;1.80;;;20.60;45.10;;;;;;7672759;23;20289;-65
2021/04/14 12:52:34;;;;;;;6.13;1.90;;;20.60;45.20;;;;;;7669503;23;20004;-66
2021/04/14 12:55:48;;;;;;;3.97;1.65;;;20.50;45.10;;;;;;7671938;23;20012;-66
2021/04/14 12:58:50;;;;;;;3.58;1.65;;;20.60;45.50;;;;;;7672018;23;20013;-66
2021/04/14 13:01:55;;;;;;;7.82;1.95;;;20.60;45.50;;;;;;7673297;23;20032;-66
2021/04/14 13:04:58;;;;;;;6.85;1.92;;;20.70;45.40;;;;;;7672554;23;20014;-66
2021/04/14 13:08:02;;;;;;;3.13;1.48;;;20.70;45.10;;;;;;7672103;23;20305;-65
2021/04/14 13:11:29;;;;;;;3.53;1.67;;;20.70;45.00;;;;;;7671955;23;20001;-66
2021/04/14 13:14:30;;;;;;;6.07;2.15;;;20.80;45.10;;;;;;7672245;23;20376;-65
2021/04/14 13:17:35;;;;;;;4.35;1.50;;;20.80;45.00;;;;;;7669088;23;20140;-66
2021/04/14 13:20:35;;;;;;;3.17;1.80;;;20.80;44.90;;;;;;7671575;23;20448;-66
2021/04/14 13:23:44;;;;;;;5.40;1.92;;;20.80;44.90;;;;;;7672681;23;20016;-66
2021/04/14 13:27:10;;;;;;;4.97;2.38;;;20.80;44.70;;;;;;7672340;23;20005;-67
2021/04/14 13:30:21;;;;;;;6.22;1.70;;;20.80;42.70;;;;;;7670965;23;20005;-66
2021/04/14 13:33:48;;;;;;;3.20;1.75;;;20.80;42.40;;;;;;7673472;23;20001;-66
2021/04/14 13:37:06;;;;;;;11.38;1.85;;;20.80;41.90;;;;;;7671889;23;20538;-66
2021/04/14 13:40:25;;;;;;;3.13;1.20;;;20.80;41.90;;;;;;7663112;23;20009;-66
2021/04/14 13:43:31;;;;;;;7.22;1.83;;;20.80;42.20;;;;;;7669490;23;20377;-66
2021/04/14 13:47:13;;;;;;;3.13;1.50;;;20.80;42.60;;;;;;7671669;23;20471;-67
2021/04/14 13:50:25;;;;;;;3.55;1.60;;;20.80;42.70;;;;;;7671459;23;20016;-65
2021/04/14 13:53:34;;;;;;;2.83;1.58;;;20.80;42.70;;;;;;7671324;23;20001;-65
2021/04/14 13:56:38;;;;;;;5.10;1.75;;;20.80;42.90;;;;;;7671435;23;20016;-66
2021/04/14 13:59:50;;;;;;;3.20;1.27;;;20.80;43.00;;;;;;7671959;23;20375;-66
2021/04/14 14:02:52;;;;;;;4.05;1.80;;;20.80;43.00;;;;;;7672880;23;20001;-66
2021/04/14 14:05:58;;;;;;;3.63;1.70;;;20.80;43.30;;;;;;7673460;23;20112;-66
2021/04/14 14:09:03;;;;;;;2.55;1.60;;;20.70;43.30;;;;;;7675351;23;20004;-66
2021/04/14 14:12:25;;;;;;;2.95;1.60;;;20.70;43.60;;;;;;7672514;23;20017;-67
2021/04/14 14:15:29;;;;;;;2.75;1.30;;;20.70;43.40;;;;;;7673468;23;20009;-66
2021/04/14 14:18:29;;;;;;;2.75;1.20;;;20.70;43.70;;;;;;7673085;23;20024;-66
2021/04/14 14:21:32;;;;;;;2.03;1.38;;;20.80;43.80;;;;;;7674070;23;20008;-66
2021/04/14 14:24:35;;;;;;;4.78;1.45;;;20.80;43.80;;;;;;7674199;23;20009;-65
2021/04/14 14:27:36;;;;;;;3.55;1.60;;;20.70;43.60;;;;;;7673177;23;20405;-66
2021/04/14 14:30:36;;;;;;;3.05;1.40;;;20.80;43.80;;;;;;7671539;23;20088;-65
2021/04/14 14:33:39;;;;;;;5.18;1.40;;;20.70;43.90;;;;;;7674477;23;20031;-66
2021/04/14 14:36:50;;;;;;;2.50;1.70;;;20.80;44.00;;;;;;7674840;23;20493;-65
2021/04/14 14:40:10;;;;;;;3.30;1.65;;;20.80;44.10;;;;;;7672096;23;20008;-65
2021/04/14 14:43:22;;;;;;;3.30;1.30;;;20.80;44.80;;;;;;7672597;23;20450;-66
2021/04/14 14:46:32;;;;;;;4.45;1.52;;;20.70;44.10;;;;;;7675531;23;20001;-66
2021/04/14 14:49:37;;;;;;;5.32;1.92;;;20.70;44.20;;;;;;7673981;23;20494;-66
2021/04/14 14:52:40;;;;;;;;;;;20.70;44.10;;;;;;7674646;23;20063;-66
2021/04/14 14:55:41;;;;;;;5.63;1.40;;;20.70;42.40;;;;;;7674695;23;20491;-66
2021/04/14 14:58:48;;;;;;;4.28;1.40;;;20.70;43.00;;;;;;7674154;23;20453;-66
2021/04/14 15:01:48;;;;;;;4.20;1.80;;;20.70;43.40;;;;;;7674155;23;20112;-65
2021/04/14 15:04:49;;;;;;;4.70;1.40;;;20.70;43.50;;;;;;7675484;23;20310;-67
2021/04/14 15:07:50;;;;;;;1.77;1.25;;;20.70;43.60;;;;;;7675491;23;20008;-66
2021/04/14 15:10:50;;;;;;;2.70;1.50;;;20.70;43.80;;;;;;7675109;23;20008;-67
2021/04/14 15:13:51;;;;;;;3.65;1.55;;;20.70;43.90;;;;;;7675338;23;20005;-66
2021/04/14 15:16:51;;;;;;;2.97;1.30;;;20.70;44.10;;;;;;7675456;23;20064;-66
2021/04/14 15:19:53;;;;;;;2.30;1.42;;;20.60;44.00;;;;;;7673372;23;20092;-66
2021/04/14 15:22:54;;;;;;;2.38;1.60;;;20.70;44.10;;;;;;7674755;23;20467;-66
2021/04/14 15:25:55;;;;;;;4.15;1.48;;;20.70;44.20;;;;;;7673788;23;20135;-66
2021/04/14 15:28:57;;;;;;;3.45;1.40;;;20.60;44.00;;;;;;7674631;23;20020;-66
2021/04/14 15:31:57;;;;;;;3.50;1.63;;;20.70;44.20;;;;;;7673773;23;20061;-66
2021/04/14 15:34:58;;;;;;;2.95;1.20;;;20.60;44.10;;;;;;7673950;23;20064;-66
2021/04/14 15:38:02;;;;;;;4.25;1.60;;;20.60;44.00;;;;;;7675321;23;20013;-65
2021/04/14 15:41:03;;;;;;;3.00;1.48;;;20.60;44.50;;;;;;7674389;23;20365;-66
2021/04/14 15:44:05;;;;;;;4.10;1.33;;;20.60;44.50;;;;;;7675106;23;20088;-66
2021/04/14 15:47:05;;;;;;;6.13;1.60;;;20.60;44.30;;;;;;7674290;23;19997;-65
2021/04/14 15:50:10;;;;;;;6.22;1.58;;;20.60;44.30;;;;;;7672639;23;20071;-66
2021/04/14 15:53:11;;;;;;;6.75;1.58;;;20.60;44.70;;;;;;7673239;23;20084;-65
2021/04/14 15:56:14;;;;;;;3.28;1.48;;;20.60;44.50;;;;;;7673417;23;20009;-65
2021/04/14 15:59:15;;;;;;;2.75;1.38;;;20.60;44.60;;;;;;7672520;23;20017;-66
2021/04/14 16:02:16;;;;;;;3.30;1.23;;;20.60;44.60;;;;;;7673003;23;20001;-65
2021/04/14 16:05:35;;;;;;;4.93;1.30;;;20.60;44.80;;;;;;7673291;23;20001;-66
2021/04/14 16:08:35;;;;;;;2.75;1.23;;;20.60;44.70;;;;;;7672875;23;20067;-66
2021/04/14 16:11:36;;;;;;;5.00;1.30;;;20.60;44.90;;;;;;7666964;23;20005;-65
2021/04/14 16:14:36;;;;;;;4.22;1.38;;;20.60;44.90;;;;;;7668479;23;20013;-65